KBUF/BUF METAR and TAF weather

Enter ICAO airport designator
Station Type Date Time Source
KBUF METAR 2020/01/22 14:54 UTC NOAA

KBUF 221454Z 21010KT 10SM FEW015 FEW190 BKN240 M04/M09 A3038 RMK AO2 SLP299 T10441094 53007


Station Type Date Time Source
KBUF Decoded METAR 2020/01/22 14:54 UTC NOAA

GREATER BUFFALO INTERNATIONAL AIRPORT , NY, United States (KBUF) 42-56N 078-44W 225M
Jan 22, 2020 - 09:54 AM EST / 2020.01.22 1454 UTC
Wind: from the SSW (210 degrees) at 12 MPH (10 KT):0
Visibility: 10 mile(s):0
Sky conditions: mostly cloudy
Temperature: 24.1 F (-4.4 C)
Windchill: 12 F (-11 C):1
Dew Point: 15.1 F (-9.4 C)
Relative Humidity: 68%
Pressure (altimeter): 30.38 in. Hg (1028 hPa)
Pressure tendency: 0.02 inches (0.7 hPa) higher than three hours ago
ob: KBUF 221454Z 21010KT 10SM FEW015 FEW190 BKN240 M04/M09 A3038 RMK AO2 SLP299 T10441094 53007
cycle: 15

Station Type Date Time Source
KBUF TAF 2020/01/22 15:06 UTC NOAA

TAF
AMD KBUF 221502Z 2215/2312 21011KT P6SM SCT015 BKN250
FM221700 22013G20KT P6SM BKN250
FM222100 22010G18KT P6SM FEW250
FM230900 19006KT P6SM BKN250

Example: see airport list